sensor_id;sensor_type;location;lat;lon;timestamp;pressure;altitude;pressure_sealevel;temperature;humidity
31225;BME280;17847;31.524;74.366;2022-08-07T00:02:19;97423.16;;;30.80;78.56
31225;BME280;17847;31.524;74.366;2022-08-07T00:05:24;97429.16;;;30.86;78.01
31225;BME280;17847;31.524;74.366;2022-08-07T00:08:15;97427.47;;;30.40;80.31
31225;BME280;17847;31.524;74.366;2022-08-07T00:11:10;97430.50;;;30.31;80.27
31225;BME280;17847;31.524;74.366;2022-08-07T00:13:53;97428.09;;;30.30;80.35
31225;BME280;17847;31.524;74.366;2022-08-07T00:16:50;97426.56;;;30.32;81.01
31225;BME280;17847;31.524;74.366;2022-08-07T00:19:26;97428.97;;;30.34;81.28
31225;BME280;17847;31.524;74.366;2022-08-07T00:22:41;97435.28;;;30.34;80.87
31225;BME280;17847;31.524;74.366;2022-08-07T00:25:25;97431.66;;;30.30;81.00
31225;BME280;17847;31.524;74.366;2022-08-07T00:28:21;97439.25;;;30.33;80.97
31225;BME280;17847;31.524;74.366;2022-08-07T00:31:08;97440.88;;;30.38;80.33
31225;BME280;17847;31.524;74.366;2022-08-07T00:33:57;97442.53;;;30.42;79.90
31225;BME280;17847;31.524;74.366;2022-08-07T00:36:33;97447.69;;;30.44;80.36
31225;BME280;17847;31.524;74.366;2022-08-07T00:39:28;97452.78;;;30.42;80.80
31225;BME280;17847;31.524;74.366;2022-08-07T00:42:04;97456.66;;;30.34;80.81
31225;BME280;17847;31.524;74.366;2022-08-07T00:45:09;97464.63;;;30.39;80.63
31225;BME280;17847;31.524;74.366;2022-08-07T00:47:55;97464.31;;;30.44;81.14
31225;BME280;17847;31.524;74.366;2022-08-07T00:50:50;97468.09;;;30.32;80.85
31225;BME280;17847;31.524;74.366;2022-08-07T00:53:34;97468.66;;;30.45;80.63
31225;BME280;17847;31.524;74.366;2022-08-07T00:56:34;97471.53;;;30.52;80.24
31225;BME280;17847;31.524;74.366;2022-08-07T00:59:22;97478.06;;;30.37;80.36
31225;BME280;17847;31.524;74.366;2022-08-07T01:02:15;97486.56;;;30.55;80.37
31225;BME280;17847;31.524;74.366;2022-08-07T01:05:04;97480.63;;;30.53;80.61
31225;BME280;17847;31.524;74.366;2022-08-07T01:07:59;97482.88;;;30.43;80.40
31225;BME280;17847;31.524;74.366;2022-08-07T01:10:42;97483.69;;;30.44;80.35
31225;BME280;17847;31.524;74.366;2022-08-07T01:13:35;97491.53;;;30.42;80.68
31225;BME280;17847;31.524;74.366;2022-08-07T01:16:29;97496.19;;;30.34;80.58
31225;BME280;17847;31.524;74.366;2022-08-07T01:19:28;97495.25;;;30.53;80.31
31225;BME280;17847;31.524;74.366;2022-08-07T01:22:08;97500.47;;;30.58;80.02
31225;BME280;17847;31.524;74.366;2022-08-07T01:25:11;97502.13;;;30.63;80.19
31225;BME280;17847;31.524;74.366;2022-08-07T01:28:13;97508.25;;;30.49;80.41
31225;BME280;17847;31.524;74.366;2022-08-07T01:31:03;97520.94;;;30.50;79.59
31225;BME280;17847;31.524;74.366;2022-08-07T01:33:52;97512.28;;;30.55;79.75
31225;BME280;17847;31.524;74.366;2022-08-07T01:36:48;97515.19;;;30.66;79.47
31225;BME280;17847;31.524;74.366;2022-08-07T01:39:31;97519.19;;;30.69;79.03
31225;BME280;17847;31.524;74.366;2022-08-07T01:42:35;97524.38;;;30.74;78.87
31225;BME280;17847;31.524;74.366;2022-08-07T01:45:32;97522.88;;;30.80;79.26
31225;BME280;17847;31.524;74.366;2022-08-07T01:48:26;97522.81;;;30.73;78.93
31225;BME280;17847;31.524;74.366;2022-08-07T01:51:22;97531.59;;;30.82;79.06
31225;BME280;17847;31.524;74.366;2022-08-07T01:54:35;97523.81;;;30.57;79.61
31225;BME280;17847;31.524;74.366;2022-08-07T01:57:29;97525.72;;;30.87;79.00
31225;BME280;17847;31.524;74.366;2022-08-07T02:00:53;97530.38;;;31.10;78.44
31225;BME280;17847;31.524;74.366;2022-08-07T02:04:29;97537.75;;;31.32;77.67
31225;BME280;17847;31.524;74.366;2022-08-07T02:07:46;97533.03;;;31.36;77.59
31225;BME280;17847;31.524;74.366;2022-08-07T02:10:40;97546.97;;;31.44;77.15
31225;BME280;17847;31.524;74.366;2022-08-07T02:13:38;97544.97;;;31.85;76.23
31225;BME280;17847;31.524;74.366;2022-08-07T02:16:36;97543.19;;;32.07;76.27
31225;BME280;17847;31.524;74.366;2022-08-07T02:19:26;97546.88;;;31.77;76.03
31225;BME280;17847;31.524;74.366;2022-08-07T02:22:32;97546.97;;;31.85;75.16
31225;BME280;17847;31.524;74.366;2022-08-07T02:25:24;97548.81;;;32.14;73.92
31225;BME280;17847;31.524;74.366;2022-08-07T02:28:28;97542.94;;;32.30;73.78
31225;BME280;17847;31.524;74.366;2022-08-07T02:31:20;97543.44;;;32.43;72.53
31225;BME280;17847;31.524;74.366;2022-08-07T02:34:05;97553.09;;;32.64;73.11
31225;BME280;17847;31.524;74.366;2022-08-07T02:37:01;97541.09;;;32.52;72.93
31225;BME280;17847;31.524;74.366;2022-08-07T02:39:47;97545.75;;;32.34;73.56
31225;BME280;17847;31.524;74.366;2022-08-07T02:43:05;97542.28;;;32.51;73.09
31225;BME280;17847;31.524;74.366;2022-08-07T02:45:41;97554.75;;;32.86;72.43
31225;BME280;17847;31.524;74.366;2022-08-07T02:48:42;97550.47;;;33.07;72.08
31225;BME280;17847;31.524;74.366;2022-08-07T02:51:31;97555.97;;;32.85;72.68
31225;BME280;17847;31.524;74.366;2022-08-07T02:54:32;97556.72;;;32.71;73.08
31225;BME280;17847;31.524;74.366;2022-08-07T02:57:13;97555.56;;;32.90;72.38
31225;BME280;17847;31.524;74.366;2022-08-07T03:00:15;97561.53;;;32.89;71.86
31225;BME280;17847;31.524;74.366;2022-08-07T03:02:51;97566.75;;;33.05;71.68
31225;BME280;17847;31.524;74.366;2022-08-07T03:05:55;97557.25;;;33.06;71.88
31225;BME280;17847;31.524;74.366;2022-08-07T03:08:55;97571.25;;;32.54;72.47
31225;BME280;17847;31.524;74.366;2022-08-07T03:11:51;97561.19;;;33.05;72.90
31225;BME280;17847;31.524;74.366;2022-08-07T03:14:37;97555.22;;;32.95;73.14
31225;BME280;17847;31.524;74.366;2022-08-07T03:17:34;97550.88;;;33.05;72.37
31225;BME280;17847;31.524;74.366;2022-08-07T03:20:27;97552.31;;;32.67;73.25
31225;BME280;17847;31.524;74.366;2022-08-07T03:23:25;97553.22;;;33.00;72.79
31225;BME280;17847;31.524;74.366;2022-08-07T03:26:32;97549.38;;;33.22;71.57
31225;BME280;17847;31.524;74.366;2022-08-07T03:29:50;97556.25;;;33.79;70.66
31225;BME280;17847;31.524;74.366;2022-08-07T03:32:37;97563.69;;;33.46;70.96
31225;BME280;17847;31.524;74.366;2022-08-07T03:35:39;97559.41;;;33.88;69.59
31225;BME280;17847;31.524;74.366;2022-08-07T03:38:23;97558.19;;;34.10;69.64
31225;BME280;17847;31.524;74.366;2022-08-07T03:41:21;97552.66;;;34.21;69.55
31225;BME280;17847;31.524;74.366;2022-08-07T03:44:20;97551.84;;;34.13;70.72
31225;BME280;17847;31.524;74.366;2022-08-07T03:47:18;97554.22;;;34.44;68.15
31225;BME280;17847;31.524;74.366;2022-08-07T03:49:58;97553.44;;;34.11;69.44
31225;BME280;17847;31.524;74.366;2022-08-07T03:53:00;97562.19;;;33.88;70.31
31225;BME280;17847;31.524;74.366;2022-08-07T03:55:41;97549.47;;;33.94;71.50
31225;BME280;17847;31.524;74.366;2022-08-07T03:58:46;97550.59;;;34.72;69.58
31225;BME280;17847;31.524;74.366;2022-08-07T04:01:47;97546.19;;;34.71;67.75
31225;BME280;17847;31.524;74.366;2022-08-07T04:04:38;97551.66;;;35.00;68.11
31225;BME280;17847;31.524;74.366;2022-08-07T04:07:30;97549.72;;;34.86;68.05
31225;BME280;17847;31.524;74.366;2022-08-07T04:10:20;97560.47;;;34.87;67.37
31225;BME280;17847;31.524;74.366;2022-08-07T04:13:13;97547.75;;;34.76;68.38
31225;BME280;17847;31.524;74.366;2022-08-07T04:15:52;97555.28;;;34.93;67.39
31225;BME280;17847;31.524;74.366;2022-08-07T04:18:51;97554.06;;;34.90;67.02
31225;BME280;17847;31.524;74.366;2022-08-07T04:21:35;97559.13;;;35.14;65.77
31225;BME280;17847;31.524;74.366;2022-08-07T04:24:48;97556.38;;;35.17;66.75
31225;BME280;17847;31.524;74.366;2022-08-07T04:27:25;97556.31;;;35.32;66.92
31225;BME280;17847;31.524;74.366;2022-08-07T04:30:25;97556.06;;;34.90;67.36
31225;BME280;17847;31.524;74.366;2022-08-07T04:33:27;97559.53;;;35.23;67.02
31225;BME280;17847;31.524;74.366;2022-08-07T04:36:09;97557.72;;;35.58;65.21
31225;BME280;17847;31.524;74.366;2022-08-07T04:39:06;97562.81;;;34.93;66.35
31225;BME280;17847;31.524;74.366;2022-08-07T04:41:51;97560.38;;;35.09;65.48
31225;BME280;17847;31.524;74.366;2022-08-07T04:44:39;97558.59;;;35.47;65.47
31225;BME280;17847;31.524;74.366;2022-08-07T04:47:40;97561.81;;;35.39;67.10
31225;BME280;17847;31.524;74.366;2022-08-07T04:50:59;97560.59;;;34.08;67.48
31225;BME280;17847;31.524;74.366;2022-08-07T04:53:50;97553.03;;;35.44;64.60
31225;BME280;17847;31.524;74.366;2022-08-07T05:00:18;97564.47;;;36.13;63.53
31225;BME280;17847;31.524;74.366;2022-08-07T05:07:05;97555.47;;;35.31;63.07
31225;BME280;17847;31.524;74.366;2022-08-07T05:10:18;97557.75;;;35.54;62.72
31225;BME280;17847;31.524;74.366;2022-08-07T05:13:27;97550.19;;;35.51;63.30
31225;BME280;17847;31.524;74.366;2022-08-07T05:16:47;97557.16;;;35.14;64.88
31225;BME280;17847;31.524;74.366;2022-08-07T05:19:33;97551.00;;;35.48;66.53
31225;BME280;17847;31.524;74.366;2022-08-07T05:22:30;97553.69;;;35.70;64.56
31225;BME280;17847;31.524;74.366;2022-08-07T05:25:14;97549.31;;;35.61;64.20
31225;BME280;17847;31.524;74.366;2022-08-07T05:28:17;97551.09;;;35.93;63.68
31225;BME280;17847;31.524;74.366;2022-08-07T05:31:02;97545.31;;;35.70;60.25
31225;BME280;17847;31.524;74.366;2022-08-07T05:33:58;97544.81;;;35.08;62.65
31225;BME280;17847;31.524;74.366;2022-08-07T05:36:49;97537.56;;;35.88;63.06
31225;BME280;17847;31.524;74.366;2022-08-07T05:39:55;97535.97;;;35.31;61.88
31225;BME280;17847;31.524;74.366;2022-08-07T05:42:52;97538.16;;;36.17;60.99
31225;BME280;17847;31.524;74.366;2022-08-07T05:45:50;97536.31;;;36.38;60.30
31225;BME280;17847;31.524;74.366;2022-08-07T05:48:33;97536.53;;;35.67;62.71
31225;BME280;17847;31.524;74.366;2022-08-07T05:51:43;97528.09;;;35.78;62.77
31225;BME280;17847;31.524;74.366;2022-08-07T05:54:28;97532.16;;;35.70;62.96
31225;BME280;17847;31.524;74.366;2022-08-07T05:57:39;97530.94;;;35.01;66.17
31225;BME280;17847;31.524;74.366;2022-08-07T06:00:24;97527.03;;;34.87;59.61
31225;BME280;17847;31.524;74.366;2022-08-07T06:03:15;97526.38;;;34.40;63.05
31225;BME280;17847;31.524;74.366;2022-08-07T06:06:22;97532.72;;;34.41;63.01
31225;BME280;17847;31.524;74.366;2022-08-07T06:09:16;97530.41;;;33.71;66.81
31225;BME280;17847;31.524;74.366;2022-08-07T06:12:31;97537.13;;;33.99;67.71
31225;BME280;17847;31.524;74.366;2022-08-07T06:15:08;97525.56;;;34.14;66.92
31225;BME280;17847;31.524;74.366;2022-08-07T06:18:26;97516.06;;;33.58;67.11
31225;BME280;17847;31.524;74.366;2022-08-07T06:21:12;97514.06;;;33.62;67.97
31225;BME280;17847;31.524;74.366;2022-08-07T06:24:28;97506.50;;;33.52;68.54
31225;BME280;17847;31.524;74.366;2022-08-07T06:27:31;97518.00;;;33.25;70.82
31225;BME280;17847;31.524;74.366;2022-08-07T06:30:40;97514.03;;;33.51;69.02
31225;BME280;17847;31.524;74.366;2022-08-07T06:33:27;97505.34;;;33.82;68.54
31225;BME280;17847;31.524;74.366;2022-08-07T06:36:16;97500.97;;;33.81;66.88
31225;BME280;17847;31.524;74.366;2022-08-07T06:39:08;97504.09;;;34.33;67.23
31225;BME280;17847;31.524;74.366;2022-08-07T06:42:21;97520.44;;;33.99;68.10
31225;BME280;17847;31.524;74.366;2022-08-07T06:45:12;97521.22;;;33.60;67.28
31225;BME280;17847;31.524;74.366;2022-08-07T06:48:08;97525.59;;;33.86;68.69
31225;BME280;17847;31.524;74.366;2022-08-07T06:50:59;97528.41;;;33.68;68.93
31225;BME280;17847;31.524;74.366;2022-08-07T06:53:49;97533.91;;;33.39;70.23
31225;BME280;17847;31.524;74.366;2022-08-07T06:56:56;97538.75;;;33.64;71.89
31225;BME280;17847;31.524;74.366;2022-08-07T06:59:47;97532.75;;;33.62;71.60
31225;BME280;17847;31.524;74.366;2022-08-07T07:02:52;97529.28;;;32.63;71.71
31225;BME280;17847;31.524;74.366;2022-08-07T07:05:53;97529.94;;;32.42;72.37
31225;BME280;17847;31.524;74.366;2022-08-07T07:08:39;97547.31;;;31.79;72.65
31225;BME280;17847;31.524;74.366;2022-08-07T07:11:36;97542.47;;;31.32;73.34
31225;BME280;17847;31.524;74.366;2022-08-07T07:17:44;97531.38;;;31.32;73.49
31225;BME280;17847;31.524;74.366;2022-08-07T07:20:38;97522.47;;;30.78;75.07
31225;BME280;17847;31.524;74.366;2022-08-07T07:23:37;97523.94;;;30.68;76.24
31225;BME280;17847;31.524;74.366;2022-08-07T07:26:40;97514.16;;;30.78;76.91
31225;BME280;17847;31.524;74.366;2022-08-07T07:29:35;97512.00;;;30.94;77.53
31225;BME280;17847;31.524;74.366;2022-08-07T07:32:39;97515.34;;;31.11;78.54
31225;BME280;17847;31.524;74.366;2022-08-07T07:35:30;97510.66;;;31.15;77.20
31225;BME280;17847;31.524;74.366;2022-08-07T07:38:35;97504.78;;;31.23;77.07
31225;BME280;17847;31.524;74.366;2022-08-07T07:41:33;97502.53;;;31.36;77.16
31225;BME280;17847;31.524;74.366;2022-08-07T07:44:38;97509.31;;;31.42;77.21
31225;BME280;17847;31.524;74.366;2022-08-07T07:47:30;97505.88;;;31.49;77.37
31225;BME280;17847;31.524;74.366;2022-08-07T07:50:27;97500.75;;;31.58;78.04
31225;BME280;17847;31.524;74.366;2022-08-07T07:53:21;97503.16;;;31.60;77.46
31225;BME280;17847;31.524;74.366;2022-08-07T07:56:08;97503.88;;;31.50;78.52
31225;BME280;17847;31.524;74.366;2022-08-07T07:59:10;97508.03;;;31.70;78.46
31225;BME280;17847;31.524;74.366;2022-08-07T08:02:14;97495.84;;;31.86;78.00
31225;BME280;17847;31.524;74.366;2022-08-07T08:08:54;97487.56;;;31.89;78.02
31225;BME280;17847;31.524;74.366;2022-08-07T08:11:47;97486.78;;;31.96;76.93
31225;BME280;17847;31.524;74.366;2022-08-07T08:14:38;97478.56;;;32.03;77.77
31225;BME280;17847;31.524;74.366;2022-08-07T08:17:35;97481.72;;;32.05;78.51
31225;BME280;17847;31.524;74.366;2022-08-07T08:20:33;97478.97;;;32.05;77.84
31225;BME280;17847;31.524;74.366;2022-08-07T08:23:30;97472.63;;;32.05;77.45
31225;BME280;17847;31.524;74.366;2022-08-07T08:26:32;97476.63;;;32.11;78.33
31225;BME280;17847;31.524;74.366;2022-08-07T08:29:56;97469.06;;;32.08;78.11
31225;BME280;17847;31.524;74.366;2022-08-07T08:32:52;97458.38;;;32.13;76.48
31225;BME280;17847;31.524;74.366;2022-08-07T08:35:46;97454.47;;;32.18;76.09
31225;BME280;17847;31.524;74.366;2022-08-07T08:38:36;97454.81;;;32.13;76.04
31225;BME280;17847;31.524;74.366;2022-08-07T08:41:52;97459.81;;;31.93;76.36
31225;BME280;17847;31.524;74.366;2022-08-07T08:45:19;97452.00;;;32.06;77.09
31225;BME280;17847;31.524;74.366;2022-08-07T08:51:55;97436.59;;;32.15;76.31
31225;BME280;17847;31.524;74.366;2022-08-07T08:55:02;97427.09;;;32.20;76.41
31225;BME280;17847;31.524;74.366;2022-08-07T08:58:18;97426.69;;;32.22;76.91
31225;BME280;17847;31.524;74.366;2022-08-07T09:04:52;97429.91;;;32.24;76.38
31225;BME280;17847;31.524;74.366;2022-08-07T09:11:23;97411.28;;;32.35;76.33
31225;BME280;17847;31.524;74.366;2022-08-07T09:15:11;97411.31;;;32.42;76.27
31225;BME280;17847;31.524;74.366;2022-08-07T09:28:03;97377.31;;;32.70;75.13
31225;BME280;17847;31.524;74.366;2022-08-07T09:32:03;97384.88;;;32.73;73.69
31225;BME280;17847;31.524;74.366;2022-08-07T09:35:25;97388.41;;;32.67;73.70
31225;BME280;17847;31.524;74.366;2022-08-07T09:39:17;97385.66;;;32.74;72.70
31225;BME280;17847;31.524;74.366;2022-08-07T09:45:29;97377.75;;;33.05;71.87
31225;BME280;17847;31.524;74.366;2022-08-07T10:11:04;97408.75;;;33.14;73.06
31225;BME280;17847;31.524;74.366;2022-08-07T10:18:19;97395.66;;;33.25;72.59
31225;BME280;17847;31.524;74.366;2022-08-07T10:21:24;97382.94;;;33.35;72.18
31225;BME280;17847;31.524;74.366;2022-08-07T10:40:07;97382.91;;;33.03;71.86
31225;BME280;17847;31.524;74.366;2022-08-07T10:43:06;97399.22;;;33.29;71.95
31225;BME280;17847;31.524;74.366;2022-08-07T10:46:25;97402.41;;;33.31;73.43
31225;BME280;17847;31.524;74.366;2022-08-07T10:52:36;97402.41;;;33.17;72.85
31225;BME280;17847;31.524;74.366;2022-08-07T10:55:35;97415.88;;;33.08;73.42
31225;BME280;17847;31.524;74.366;2022-08-07T10:59:00;97438.06;;;32.86;74.10
31225;BME280;17847;31.524;74.366;2022-08-07T11:05:54;97410.63;;;30.90;72.93
31225;BME280;17847;31.524;74.366;2022-08-07T11:08:44;97399.47;;;31.75;71.28
31225;BME280;17847;31.524;74.366;2022-08-07T11:11:46;97388.66;;;31.56;71.07
31225;BME280;17847;31.524;74.366;2022-08-07T11:17:51;97387.41;;;31.01;71.70
31225;BME280;17847;31.524;74.366;2022-08-07T11:23:44;97378.84;;;31.21;71.81
31225;BME280;17847;31.524;74.366;2022-08-07T11:30:17;97381.81;;;30.60;73.12
31225;BME280;17847;31.524;74.366;2022-08-07T11:39:43;97393.75;;;30.68;72.49
31225;BME280;17847;31.524;74.366;2022-08-07T11:46:47;97388.13;;;30.57;72.03
31225;BME280;17847;31.524;74.366;2022-08-07T11:53:01;97381.03;;;30.60;70.80
31225;BME280;17847;31.524;74.366;2022-08-07T11:56:25;97374.13;;;30.43;71.22
31225;BME280;17847;31.524;74.366;2022-08-07T12:05:47;97390.88;;;30.23;69.83
31225;BME280;17847;31.524;74.366;2022-08-07T12:12:18;97384.13;;;30.55;70.05
31225;BME280;17847;31.524;74.366;2022-08-07T12:15:01;97377.13;;;30.64;69.59
31225;BME280;17847;31.524;74.366;2022-08-07T12:18:34;97370.75;;;30.60;68.29
31225;BME280;17847;31.524;74.366;2022-08-07T12:28:30;97379.38;;;30.52;68.56
31225;BME280;17847;31.524;74.366;2022-08-07T12:34:50;97381.19;;;30.78;69.38
31225;BME280;17847;31.524;74.366;2022-08-07T12:37:50;97386.81;;;30.85;69.49
31225;BME280;17847;31.524;74.366;2022-08-07T12:40:47;97378.09;;;30.83;68.98
31225;BME280;17847;31.524;74.366;2022-08-07T12:43:41;97374.16;;;30.84;69.44
31225;BME280;17847;31.524;74.366;2022-08-07T12:50:22;97363.41;;;30.79;71.41
31225;BME280;17847;31.524;74.366;2022-08-07T12:53:41;97366.03;;;30.64;69.78
31225;BME280;17847;31.524;74.366;2022-08-07T12:56:59;97368.50;;;30.73;70.65
31225;BME280;17847;31.524;74.366;2022-08-07T12:59:42;97362.44;;;30.60;70.43
31225;BME280;17847;31.524;74.366;2022-08-07T13:02:49;97352.13;;;30.57;71.28
31225;BME280;17847;31.524;74.366;2022-08-07T13:06:07;97350.16;;;30.58;70.53
31225;BME280;17847;31.524;74.366;2022-08-07T13:09:10;97340.00;;;30.69;71.54
31225;BME280;17847;31.524;74.366;2022-08-07T13:12:42;97347.84;;;30.63;72.42
31225;BME280;17847;31.524;74.366;2022-08-07T13:15:59;97330.44;;;30.63;71.78
31225;BME280;17847;31.524;74.366;2022-08-07T13:21:45;97333.16;;;30.59;72.83
31225;BME280;17847;31.524;74.366;2022-08-07T13:25:13;97332.88;;;30.72;73.49
31225;BME280;17847;31.524;74.366;2022-08-07T13:28:09;97323.03;;;30.78;73.31
31225;BME280;17847;31.524;74.366;2022-08-07T13:31:16;97340.03;;;30.73;73.97
31225;BME280;17847;31.524;74.366;2022-08-07T13:37:56;97349.97;;;30.81;72.26
31225;BME280;17847;31.524;74.366;2022-08-07T13:40:55;97346.47;;;30.84;73.03
31225;BME280;17847;31.524;74.366;2022-08-07T13:43:48;97350.41;;;30.83;72.49
31225;BME280;17847;31.524;74.366;2022-08-07T13:46:41;97348.13;;;30.92;73.18
31225;BME280;17847;31.524;74.366;2022-08-07T13:49:45;97357.94;;;30.86;73.27
31225;BME280;17847;31.524;74.366;2022-08-07T13:52:42;97358.34;;;30.84;74.44
31225;BME280;17847;31.524;74.366;2022-08-07T13:55:40;97354.84;;;30.91;73.71
31225;BME280;17847;31.524;74.366;2022-08-07T13:58:37;97357.16;;;30.89;73.66
31225;BME280;17847;31.524;74.366;2022-08-07T14:02:18;97360.84;;;30.97;73.69
31225;BME280;17847;31.524;74.366;2022-08-07T14:05:14;97366.34;;;30.93;73.68
31225;BME280;17847;31.524;74.366;2022-08-07T14:08:19;97373.00;;;30.89;74.68
31225;BME280;17847;31.524;74.366;2022-08-07T14:11:04;97382.78;;;30.75;74.27
31225;BME280;17847;31.524;74.366;2022-08-07T14:14:03;97389.22;;;30.87;74.77
31225;BME280;17847;31.524;74.366;2022-08-07T14:16:49;97396.81;;;30.93;74.61
31225;BME280;17847;31.524;74.366;2022-08-07T14:23:29;97406.22;;;30.85;73.99
31225;BME280;17847;31.524;74.366;2022-08-07T14:26:41;97407.03;;;30.89;74.12
31225;BME280;17847;31.524;74.366;2022-08-07T14:29:46;97406.50;;;30.76;75.00
31225;BME280;17847;31.524;74.366;2022-08-07T14:32:47;97407.75;;;30.79;74.75
31225;BME280;17847;31.524;74.366;2022-08-07T14:36:04;97415.28;;;30.82;75.61
31225;BME280;17847;31.524;74.366;2022-08-07T14:38:48;97410.97;;;30.84;75.08
31225;BME280;17847;31.524;74.366;2022-08-07T14:42:08;97416.03;;;30.79;75.79
31225;BME280;17847;31.524;74.366;2022-08-07T14:44:57;97417.56;;;30.73;76.26
31225;BME280;17847;31.524;74.366;2022-08-07T14:48:06;97422.69;;;30.71;75.33
31225;BME280;17847;31.524;74.366;2022-08-07T14:50:56;97426.56;;;30.32;76.72
31225;BME280;17847;31.524;74.366;2022-08-07T14:53:57;97429.22;;;30.52;76.79
31225;BME280;17847;31.524;74.366;2022-08-07T14:57:02;97431.66;;;30.60;76.25
31225;BME280;17847;31.524;74.366;2022-08-07T15:00:00;97434.84;;;30.62;75.98
31225;BME280;17847;31.524;74.366;2022-08-07T15:02:44;97443.22;;;30.36;77.04
31225;BME280;17847;31.524;74.366;2022-08-07T15:05:59;97441.47;;;30.54;76.35
31225;BME280;17847;31.524;74.366;2022-08-07T15:08:45;97443.75;;;30.45;76.97
31225;BME280;17847;31.524;74.366;2022-08-07T15:11:42;97454.19;;;30.29;77.19
31225;BME280;17847;31.524;74.366;2022-08-07T15:15:36;97456.84;;;30.48;76.80
31225;BME280;17847;31.524;74.366;2022-08-07T15:18:20;97460.31;;;30.41;77.10
31225;BME280;17847;31.524;74.366;2022-08-07T15:21:30;97462.50;;;30.29;77.45
31225;BME280;17847;31.524;74.366;2022-08-07T15:24:49;97460.91;;;30.28;77.67
31225;BME280;17847;31.524;74.366;2022-08-07T15:27:50;97470.16;;;30.39;77.37
31225;BME280;17847;31.524;74.366;2022-08-07T15:31:12;97460.19;;;30.34;77.53
31225;BME280;17847;31.524;74.366;2022-08-07T15:34:10;97465.97;;;30.22;78.04
31225;BME280;17847;31.524;74.366;2022-08-07T15:37:06;97457.19;;;30.16;77.84
31225;BME280;17847;31.524;74.366;2022-08-07T15:39:51;97465.00;;;30.37;77.87
31225;BME280;17847;31.524;74.366;2022-08-07T15:46:19;97483.59;;;30.10;77.98
31225;BME280;17847;31.524;74.366;2022-08-07T15:49:28;97487.94;;;30.11;78.86
31225;BME280;17847;31.524;74.366;2022-08-07T15:52:25;97482.88;;;29.90;79.27
31225;BME280;17847;31.524;74.366;2022-08-07T15:55:32;97496.09;;;30.27;78.19
31225;BME280;17847;31.524;74.366;2022-08-07T15:58:46;97506.47;;;30.34;78.09
31225;BME280;17847;31.524;74.366;2022-08-07T16:01:44;97508.69;;;30.24;77.92
31225;BME280;17847;31.524;74.366;2022-08-07T16:04:36;97512.75;;;30.31;77.78
31225;BME280;17847;31.524;74.366;2022-08-07T16:07:39;97519.16;;;30.35;77.96
31225;BME280;17847;31.524;74.366;2022-08-07T16:10:37;97522.00;;;30.15;78.23
31225;BME280;17847;31.524;74.366;2022-08-07T16:30:14;97544.47;;;30.37;78.41
31225;BME280;17847;31.524;74.366;2022-08-07T16:33:11;97553.16;;;30.35;78.57
31225;BME280;17847;31.524;74.366;2022-08-07T16:40:43;97555.66;;;30.44;78.15
31225;BME280;17847;31.524;74.366;2022-08-07T16:50:32;97569.06;;;30.42;79.40
31225;BME280;17847;31.524;74.366;2022-08-07T16:53:58;97570.66;;;30.43;78.87
31225;BME280;17847;31.524;74.366;2022-08-07T17:00:20;97565.97;;;30.47;79.34
31225;BME280;17847;31.524;74.366;2022-08-07T17:06:36;97564.88;;;30.55;79.56
31225;BME280;17847;31.524;74.366;2022-08-07T17:10:50;97569.59;;;30.51;79.74
31225;BME280;17847;31.524;74.366;2022-08-07T17:16:46;97565.28;;;30.54;79.97
31225;BME280;17847;31.524;74.366;2022-08-07T17:19:47;97562.94;;;30.56;79.76
31225;BME280;17847;31.524;74.366;2022-08-07T17:23:01;97570.34;;;30.48;80.23
31225;BME280;17847;31.524;74.366;2022-08-07T17:26:21;97569.59;;;30.51;79.83
31225;BME280;17847;31.524;74.366;2022-08-07T17:30:01;97572.47;;;30.58;79.53
31225;BME280;17847;31.524;74.366;2022-08-07T17:33:07;97571.66;;;30.58;79.23
31225;BME280;17847;31.524;74.366;2022-08-07T17:36:27;97569.59;;;30.51;79.63
31225;BME280;17847;31.524;74.366;2022-08-07T17:39:20;97570.06;;;30.57;79.44
31225;BME280;17847;31.524;74.366;2022-08-07T17:42:45;97581.84;;;30.50;79.60
31225;BME280;17847;31.524;74.366;2022-08-07T17:48:57;97583.81;;;30.50;79.84
31225;BME280;17847;31.524;74.366;2022-08-07T18:00:46;97579.75;;;30.43;80.77
31225;BME280;17847;31.524;74.366;2022-08-07T18:03:46;97582.47;;;30.40;80.46
31225;BME280;17847;31.524;74.366;2022-08-07T18:06:51;97587.69;;;30.45;80.91
31225;BME280;17847;31.524;74.366;2022-08-07T18:10:07;97581.91;;;30.54;80.77
31225;BME280;17847;31.524;74.366;2022-08-07T18:13:18;97570.00;;;30.53;80.31
31225;BME280;17847;31.524;74.366;2022-08-07T18:17:04;97577.03;;;30.47;80.19
31225;BME280;17847;31.524;74.366;2022-08-07T18:19:43;97581.69;;;30.39;80.71
31225;BME280;17847;31.524;74.366;2022-08-07T18:23:16;97577.94;;;30.55;80.50
31225;BME280;17847;31.524;74.366;2022-08-07T18:36:20;97578.31;;;30.53;80.68
31225;BME280;17847;31.524;74.366;2022-08-07T18:39:25;97577.53;;;30.53;80.75
31225;BME280;17847;31.524;74.366;2022-08-07T18:45:58;97574.06;;;30.59;80.36
31225;BME280;17847;31.524;74.366;2022-08-07T18:53:32;97566.50;;;30.56;80.49
31225;BME280;17847;31.524;74.366;2022-08-07T19:02:42;97555.06;;;30.58;80.77
31225;BME280;17847;31.524;74.366;2022-08-07T19:05:35;97559.34;;;30.55;80.71
31225;BME280;17847;31.524;74.366;2022-08-07T19:12:09;97565.28;;;30.54;80.80
31225;BME280;17847;31.524;74.366;2022-08-07T19:15:19;97562.59;;;30.61;80.91
31225;BME280;17847;31.524;74.366;2022-08-07T19:18:39;97553.38;;;30.53;80.87
31225;BME280;17847;31.524;74.366;2022-08-07T19:21:49;97555.38;;;30.53;81.19
31225;BME280;17847;31.524;74.366;2022-08-07T19:24:44;97552.22;;;30.28;81.83
31225;BME280;17847;31.524;74.366;2022-08-07T19:27:47;97546.91;;;30.42;81.41
31225;BME280;17847;31.524;74.366;2022-08-07T19:31:25;97552.44;;;30.42;81.30